Terminal Aerodrome Forecast
Issued by NWS

Home | Current Version | Previous Version | Text Only | Print | Product List | Glossary On
Versions: 1 2 3 4 5 6 7 8 9 10 11 12 13 14 15 16 17 18 19
000
FTUS43 KPAH 281120
TAFCGI
TAF
KCGI 281120Z 2812/2912 33008KT P6SM SCT015 BKN025
     FM281500 35010G13KT P6SM SCT020
     FM282100 36009KT P6SM SCT040
     FM290200 01006KT P6SM SKC=

USA.gov is the U.S. government's official web portal to all federal, state and local government web resources and services.